METAR AND TAF INFORMATION
METAR FOR LZKZ
ADDS - METARS form results

(0423 UTC 09 December 2019)
Data provider http://aviationweather.gov/metar/data/
 
METAR text: LZKZ 090400Z 22004KT 0450 R01/1200U -DZ FG OVC001 01/01 Q1010
Conditions at: LZKZ (KOSICE BARCA , SK) observed 0400 UTC 09 December 2019
Temperature: 1.0°C (34°F)
Dewpoint: 1.0°C (34°F) [RH = 100%]
Pressure (altimeter): 29.82 inches Hg (1010.0 mb)
Winds: from the SW (220 degrees) at 5 MPH (4 knots; 2.1 m/s)
Visibility: 0.28 miles (0.45 km)
Ceiling: 100 feet AGL
Clouds: overcast cloud deck at 100 feet AGL
Weather: -DZ FG  (light drizzle, fog)

METAR text: LZKZ 090338Z 23004KT 0450 R01/1000U -DZ FG OVC001 01/01 Q1010
Conditions at: LZKZ (KOSICE BARCA , SK) observed 0338 UTC 09 December 2019
Temperature: 1.0°C (34°F)
Dewpoint: 1.0°C (34°F) [RH = 100%]
Pressure (altimeter): 29.82 inches Hg (1010.0 mb)
Winds: from the SW (230 degrees) at 5 MPH (4 knots; 2.1 m/s)
Visibility: 0.28 miles (0.45 km)
Ceiling: 100 feet AGL
Clouds: overcast cloud deck at 100 feet AGL
Weather: -DZ FG  (light drizzle, fog)

METAR text: LZKZ 090330Z 22004KT 0300 R01/0800N -DZ FG OVC001 01/01 Q1010
Conditions at: LZKZ (KOSICE BARCA , SK) observed 0330 UTC 09 December 2019
Temperature: 1.0°C (34°F)
Dewpoint: 1.0°C (34°F) [RH = 100%]
Pressure (altimeter): 29.82 inches Hg (1010.0 mb)
Winds: from the SW (220 degrees) at 5 MPH (4 knots; 2.1 m/s)
Visibility: 0.19 miles (0.31 km)
Ceiling: 100 feet AGL
Clouds: overcast cloud deck at 100 feet AGL
Weather: -DZ FG  (light drizzle, fog)

Forecast for: LZKZ (KOSICE BARCA , SK)
Text: TAF LZKZ 082300Z 0900/1000 21004KT 0800 BCFG OVC002
Forecast period: 0000 UTC 09 December 2019 to 0000 UTC 10 December 2019
Forecast type: FROM: standard forecast or significant change
Winds: from the SSW (210 degrees) at 5 MPH (4 knots; 2.1 m/s)
Visibility: 0.50 miles (0.80 km)
Ceiling: 200 feet AGL
Clouds: overcast cloud deck at 200 feet AGL
Weather: BCFG  (patches of fog)
Text: TEMPO 0900/0909 0100 -DZ FG OVC001
Forecast period: 0000 to 0900 UTC 09 December 2019
Forecast type: TEMPORARY: The following changes expected for less than half the time period
Visibility: 0.06 miles (0.10 km)
Ceiling: 100 feet AGL
Clouds: overcast cloud deck at 100 feet AGL
Weather: -DZ FG  (light drizzle, fog)
Text: TEMPO 0909/0917 2500 BR BKN005
Forecast period: 0900 to 1700 UTC 09 December 2019
Forecast type: TEMPORARY: The following changes expected for less than half the time period
Visibility: 1.55 miles (2.49 km)
Ceiling: 500 feet AGL
Clouds: broken clouds at 500 feet AGL
Weather: BR  (mist)
Text: TEMPO 0917/1000 0200 -DZ FG OVC001
Forecast period: 1700 UTC 09 December 2019 to 0000 UTC 10 December 2019
Forecast type: TEMPORARY: The following changes expected for less than half the time period
Visibility: 0.12 miles (0.19 km)
Ceiling: 100 feet AGL
Clouds: overcast cloud deck at 100 feet AGL
Weather: -DZ FG  (light drizzle, fog)

 AIRPORT MAP

 RUNWAY INFORMATION
Runway 01 Runway length 10171 ft Runway width 148 ft
Runway elevation 739 ft Runway displaced threshold 0 ft Runway heading 13
Runway 19 Runway length 10171 ft Runway width 148 ft
Runway elevation 753 ft Runway displaced threshold 0 ft Runway heading 193

 AIRPORT FREQUENCIES
Type APP Name APP Frequency 119.85 MHZ
Type TWR Name TWR Frequency 120.4 MHZ

 AIRPORT NEAR NAVIGATION AIDS
Type NDB Name Kosice Frequency 425 KHZ
Type VOR-DME Name Kosice Frequency 108200 KHZ